createdAt,value
2023-02-14T00:01:46.056Z,10.73
2023-02-14T00:04:14.701Z,9.00
2023-02-14T00:06:42.929Z,9.55
2023-02-14T00:09:13.532Z,10.70
2023-02-14T00:11:44.878Z,10.98
2023-02-14T00:14:32.775Z,9.75
2023-02-14T00:17:01.152Z,10.50
2023-02-14T00:19:29.323Z,9.27
2023-02-14T00:21:57.471Z,9.23
2023-02-14T00:24:30.498Z,8.43
2023-02-14T00:26:58.717Z,6.60
2023-02-14T00:29:30.765Z,5.38
2023-02-14T00:31:59.189Z,5.63
2023-02-14T00:34:27.793Z,4.32
2023-02-14T00:36:56.232Z,4.97
2023-02-14T00:39:25.727Z,6.80
2023-02-14T00:41:56.252Z,7.72
2023-02-14T00:44:24.985Z,8.07
2023-02-14T00:46:54.532Z,9.55
2023-02-14T00:49:24.792Z,9.30
2023-02-14T00:51:52.956Z,8.82
2023-02-14T00:54:21.081Z,9.20
2023-02-14T00:56:49.282Z,10.35
2023-02-14T00:59:17.668Z,9.10
2023-02-14T01:01:45.855Z,8.00
2023-02-14T01:04:15.380Z,8.52
2023-02-14T01:06:43.622Z,9.68
2023-02-14T01:09:11.792Z,9.88
2023-02-14T01:11:40.161Z,8.52
2023-02-14T01:14:08.426Z,7.97
2023-02-14T01:16:37.132Z,7.63
2023-02-14T01:19:05.323Z,7.78
2023-02-14T01:21:35.958Z,7.20
2023-02-14T01:24:06.757Z,8.25
2023-02-14T01:26:37.019Z,7.43
2023-02-14T01:29:06.046Z,8.77
2023-02-14T01:31:36.295Z,7.57
2023-02-14T01:34:05.006Z,8.93
2023-02-14T01:36:37.017Z,7.57
2023-02-14T01:39:07.748Z,7.72
2023-02-14T01:41:38.161Z,7.68
2023-02-14T01:44:08.726Z,7.07
2023-02-14T01:46:41.855Z,6.55
2023-02-14T01:49:12.982Z,6.70
2023-02-14T01:51:47.251Z,7.30
2023-02-14T01:54:16.146Z,6.55
2023-02-14T01:56:49.552Z,6.63
2023-02-14T01:59:23.046Z,6.88
2023-02-14T02:01:53.264Z,7.32
2023-02-14T02:04:25.704Z,6.63
2023-02-14T02:07:00.781Z,7.70
2023-02-14T02:09:34.436Z,7.80
2023-02-14T02:12:03.103Z,9.77
2023-02-14T02:14:31.529Z,9.05
2023-02-14T02:17:13.715Z,8.20
2023-02-14T02:20:08.050Z,7.07
2023-02-14T02:23:08.461Z,8.45
2023-02-14T02:26:02.992Z,7.82
2023-02-14T02:28:58.522Z,7.57
2023-02-14T02:31:49.033Z,7.50
2023-02-14T02:35:00.748Z,8.20
2023-02-14T02:37:41.682Z,9.57
2023-02-14T02:40:23.794Z,7.38
2023-02-14T02:43:01.875Z,8.82
2023-02-14T02:45:59.215Z,9.98
2023-02-14T02:48:38.010Z,9.13
2023-02-14T02:51:31.125Z,8.85
2023-02-14T02:54:09.276Z,8.55
2023-02-14T02:56:47.188Z,7.97
2023-02-14T02:59:19.739Z,8.10
2023-02-14T03:02:02.706Z,9.45
2023-02-14T03:04:51.130Z,8.10
2023-02-14T03:07:39.365Z,7.00
2023-02-14T03:10:15.796Z,8.00
2023-02-14T03:13:17.544Z,8.20
2023-02-14T03:16:07.838Z,6.45
2023-02-14T03:19:06.224Z,9.18
2023-02-14T03:21:43.189Z,9.32
2023-02-14T03:24:19.914Z,8.63
2023-02-14T03:26:54.413Z,9.70
2023-02-14T03:29:28.679Z,7.75
2023-02-14T03:32:04.800Z,9.18
2023-02-14T03:34:37.280Z,7.20
2023-02-14T03:37:11.243Z,8.00
2023-02-14T03:39:44.847Z,7.95
2023-02-14T03:42:20.277Z,8.45
2023-02-14T03:44:51.495Z,7.75
2023-02-14T03:47:23.481Z,7.88
2023-02-14T03:49:55.435Z,5.10
2023-02-14T03:52:26.017Z,8.13
2023-02-14T03:54:56.671Z,7.70
2023-02-14T03:57:30.022Z,7.60
2023-02-14T03:59:58.578Z,8.70
2023-02-14T04:02:32.400Z,8.55
2023-02-14T04:05:02.799Z,8.25
2023-02-14T04:07:30.981Z,8.63
2023-02-14T04:09:59.155Z,9.30
2023-02-14T04:12:37.445Z,12.43
2023-02-14T04:15:10.025Z,9.88
2023-02-14T04:17:55.587Z,9.15
2023-02-14T04:20:23.951Z,8.23
2023-02-14T04:22:52.509Z,9.57
2023-02-14T04:25:21.926Z,8.65
2023-02-14T04:27:54.196Z,8.73
2023-02-14T04:30:22.934Z,9.80
2023-02-14T04:32:51.477Z,8.43
2023-02-14T04:35:19.880Z,8.30
2023-02-14T04:37:48.049Z,9.73
2023-02-14T04:40:17.819Z,10.65
2023-02-14T04:42:46.489Z,11.77
2023-02-14T04:45:16.183Z,13.98
2023-02-14T04:47:44.383Z,9.48
2023-02-14T04:50:13.116Z,10.48
2023-02-14T04:52:41.780Z,8.43
2023-02-14T04:55:10.984Z,9.07
2023-02-14T04:57:39.276Z,10.80
2023-02-14T05:00:08.650Z,9.48
2023-02-14T05:02:38.475Z,8.98
2023-02-14T05:05:07.416Z,6.97
2023-02-14T05:07:38.692Z,10.63
2023-02-14T05:10:07.930Z,9.25
2023-02-14T05:12:36.221Z,11.63
2023-02-14T05:15:04.629Z,8.27
2023-02-14T05:17:32.852Z,8.88
2023-02-14T05:20:04.833Z,9.57
2023-02-14T05:22:33.392Z,9.07
2023-02-14T05:25:01.970Z,10.82
2023-02-14T05:27:30.177Z,9.52
2023-02-14T05:29:58.408Z,10.93
2023-02-14T05:32:26.636Z,9.82
2023-02-14T05:34:57.147Z,10.98
2023-02-14T05:37:26.684Z,10.20
2023-02-14T05:39:54.952Z,10.73
2023-02-14T05:42:25.159Z,7.05
2023-02-14T05:44:53.355Z,8.88
2023-02-14T05:47:21.516Z,7.93
2023-02-14T05:49:49.720Z,9.95
2023-02-14T05:52:18.034Z,10.60
2023-02-14T05:54:47.563Z,8.85
2023-02-14T05:57:15.851Z,7.90
2023-02-14T05:59:44.017Z,8.23
2023-02-14T06:02:12.185Z,8.38
2023-02-14T06:04:40.458Z,9.75
2023-02-14T06:07:09.075Z,12.25
2023-02-14T06:09:40.521Z,10.52
2023-02-14T06:12:10.516Z,9.43
2023-02-14T06:14:41.330Z,12.85
2023-02-14T06:17:09.744Z,11.27
2023-02-14T06:19:39.569Z,10.30
2023-02-14T06:22:11.964Z,9.38
2023-02-14T06:24:40.108Z,9.68
2023-02-14T06:27:09.941Z,8.90
2023-02-14T06:29:41.089Z,7.78
2023-02-14T06:32:09.444Z,8.65
2023-02-14T06:34:39.780Z,6.90
2023-02-14T06:37:08.071Z,9.40
2023-02-14T06:39:36.269Z,8.48
2023-02-14T06:42:04.500Z,7.15
2023-02-14T06:44:34.022Z,8.38
2023-02-14T06:47:02.690Z,8.40
2023-02-14T06:49:35.663Z,8.57
2023-02-14T06:52:05.085Z,9.80
2023-02-14T06:54:33.534Z,8.13
2023-02-14T06:57:01.877Z,13.02
2023-02-14T06:59:30.062Z,10.10
2023-02-14T07:01:59.680Z,8.75
2023-02-14T07:04:27.880Z,8.55
2023-02-14T07:06:58.991Z,8.18
2023-02-14T07:09:30.056Z,7.50
2023-02-14T07:12:00.992Z,9.40
2023-02-14T07:14:29.146Z,8.30
2023-02-14T07:16:57.349Z,8.23
2023-02-14T07:19:27.114Z,9.00
2023-02-14T07:21:55.299Z,8.65
2023-02-14T07:24:26.473Z,7.93
2023-02-14T07:26:55.936Z,8.95
2023-02-14T07:29:26.860Z,8.65
2023-02-14T07:31:55.576Z,8.75
2023-02-14T07:34:28.271Z,8.18
2023-02-14T07:36:56.440Z,9.20
2023-02-14T07:39:24.587Z,8.32
2023-02-14T07:41:52.778Z,9.40
2023-02-14T07:44:21.855Z,9.82
2023-02-14T07:46:50.011Z,10.25
2023-02-14T07:49:18.736Z,10.00
2023-02-14T07:51:48.475Z,10.63
2023-02-14T07:54:16.847Z,12.90
2023-02-14T07:56:45.976Z,9.63
2023-02-14T07:59:14.133Z,11.85
2023-02-14T08:01:42.620Z,12.20
2023-02-14T08:04:14.431Z,11.60
2023-02-14T08:06:43.108Z,10.63
2023-02-14T08:09:24.526Z,10.57
2023-02-14T08:12:10.833Z,11.20
2023-02-14T08:14:39.026Z,10.57
2023-02-14T08:17:08.312Z,9.50
2023-02-14T08:19:36.952Z,9.70
2023-02-14T08:22:05.625Z,8.32
2023-02-14T08:24:35.197Z,9.75
2023-02-14T08:27:03.556Z,10.48
2023-02-14T08:29:31.698Z,11.32
2023-02-14T08:32:01.062Z,7.75
2023-02-14T08:34:29.358Z,9.27
2023-02-14T08:36:57.552Z,7.40
2023-02-14T08:39:25.843Z,6.40
2023-02-14T08:41:55.417Z,9.93
2023-02-14T08:44:23.714Z,8.07
2023-02-14T08:46:51.942Z,3.97
2023-02-14T08:49:20.112Z,6.00
2023-02-14T08:51:48.305Z,5.85
2023-02-14T08:54:16.909Z,7.97
2023-02-14T08:56:45.119Z,6.65
2023-02-14T08:59:15.864Z,6.82
2023-02-14T09:01:44.178Z,5.57
2023-02-14T09:04:15.825Z,6.75
2023-02-14T09:06:44.127Z,5.32
2023-02-14T09:09:12.284Z,6.43
2023-02-14T09:11:40.485Z,7.30
2023-02-14T09:14:08.676Z,2.22
2023-02-14T09:16:38.523Z,5.72
2023-02-14T09:19:06.723Z,7.32
2023-02-14T09:21:34.997Z,7.30
2023-02-14T09:24:03.215Z,7.38
2023-02-14T09:26:31.497Z,5.65
2023-02-14T09:28:59.823Z,6.78
2023-02-14T09:31:28.026Z,7.90
2023-02-14T09:34:00.160Z,4.43
2023-02-14T09:36:28.473Z,6.68
2023-02-14T09:38:56.725Z,4.10
2023-02-14T09:41:47.572Z,4.70
2023-02-14T09:44:26.973Z,5.35
2023-02-14T09:46:58.574Z,5.30
2023-02-14T09:49:33.858Z,4.20
2023-02-14T09:52:04.826Z,4.65
2023-02-14T09:54:36.021Z,4.15
2023-02-14T09:57:12.473Z,3.85
2023-02-14T09:59:46.682Z,3.42
2023-02-14T10:02:34.916Z,1.80
2023-02-14T10:05:12.963Z,2.92
2023-02-14T10:07:53.745Z,2.90
2023-02-14T10:10:26.494Z,2.75
2023-02-14T10:12:58.433Z,6.78
2023-02-14T10:15:31.406Z,4.90
2023-02-14T10:18:05.064Z,3.20
2023-02-14T10:20:40.147Z,5.13
2023-02-14T10:23:28.484Z,3.97
2023-02-14T10:26:01.443Z,4.40
2023-02-14T10:28:33.603Z,4.10
2023-02-14T10:31:19.104Z,3.05
2023-02-14T10:33:56.322Z,3.05
2023-02-14T10:36:44.095Z,2.08
2023-02-14T10:39:29.358Z,2.80
2023-02-14T10:42:06.383Z,3.10
2023-02-14T10:44:44.443Z,2.92
2023-02-14T10:47:27.352Z,1.95
2023-02-14T10:50:06.461Z,7.10
2023-02-14T10:52:45.711Z,3.08
2023-02-14T10:55:32.055Z,2.70
2023-02-14T10:58:05.182Z,1.75
2023-02-14T11:00:36.485Z,2.55
2023-02-14T11:03:09.467Z,2.60
2023-02-14T11:05:43.741Z,4.00
2023-02-14T11:08:25.866Z,3.08
2023-02-14T11:10:58.644Z,1.83
2023-02-14T11:13:32.516Z,2.90
2023-02-14T11:16:02.909Z,3.75
2023-02-14T11:18:35.521Z,2.67
2023-02-14T11:21:07.919Z,3.42
2023-02-14T11:23:42.998Z,2.50
2023-02-14T11:26:23.564Z,3.13
2023-02-14T11:28:55.894Z,3.78
2023-02-14T11:31:33.326Z,2.45
2023-02-14T11:34:05.035Z,1.90
2023-02-14T11:36:43.167Z,2.70
2023-02-14T11:39:28.335Z,4.10
2023-02-14T11:41:58.664Z,4.28
2023-02-14T11:44:28.839Z,2.45
2023-02-14T11:46:59.005Z,2.22
2023-02-14T11:49:33.296Z,2.10
2023-02-14T11:52:10.563Z,3.75
2023-02-14T11:54:42.823Z,3.60
2023-02-14T11:57:17.550Z,7.63
2023-02-14T11:59:48.191Z,2.67
2023-02-14T12:02:29.932Z,2.95
2023-02-14T12:05:00.699Z,4.13
2023-02-14T12:07:33.055Z,5.30
2023-02-14T12:10:26.593Z,5.68
2023-02-14T12:12:59.118Z,3.00
2023-02-14T12:15:37.808Z,3.85
2023-02-14T12:18:38.841Z,2.03
2023-02-14T12:21:26.188Z,3.28
2023-02-14T12:24:04.258Z,3.97
2023-02-14T12:26:36.814Z,2.95
2023-02-14T12:29:12.595Z,4.00
2023-02-14T12:31:40.919Z,2.55
2023-02-14T12:34:12.937Z,3.35
2023-02-14T12:37:04.147Z,3.13
2023-02-14T12:39:38.609Z,3.88
2023-02-14T12:42:18.902Z,4.53
2023-02-14T12:44:57.800Z,3.88
2023-02-14T12:47:36.777Z,3.33
2023-02-14T12:50:23.532Z,3.63
2023-02-14T12:53:08.751Z,3.80
2023-02-14T12:55:51.673Z,4.25
2023-02-14T12:58:30.722Z,4.05
2023-02-14T13:01:21.737Z,3.25
2023-02-14T13:04:20.579Z,2.10
2023-02-14T13:06:51.798Z,3.80
2023-02-14T13:09:32.338Z,3.47
2023-02-14T13:12:14.048Z,3.58
2023-02-14T13:15:07.697Z,3.10
2023-02-14T13:17:41.800Z,3.42
2023-02-14T13:20:45.696Z,3.42
2023-02-14T13:23:16.887Z,3.75
2023-02-14T13:25:50.633Z,3.65
2023-02-14T13:28:20.206Z,3.90
2023-02-14T13:30:49.811Z,3.75
2023-02-14T13:33:34.059Z,3.70
2023-02-14T13:36:07.673Z,3.60
2023-02-14T13:38:44.212Z,3.40
2023-02-14T13:41:13.909Z,3.05
2023-02-14T13:43:55.053Z,3.63
2023-02-14T13:46:50.216Z,2.58
2023-02-14T13:49:32.833Z,3.25
2023-02-14T13:52:03.619Z,4.10
2023-02-14T13:54:44.862Z,3.85
2023-02-14T13:57:34.026Z,3.95
2023-02-14T14:00:46.875Z,4.25
2023-02-14T14:03:46.660Z,3.00
2023-02-14T14:06:15.009Z,4.32
2023-02-14T14:08:46.095Z,3.67
2023-02-14T14:11:57.087Z,3.70
2023-02-14T14:14:43.350Z,4.15
2023-02-14T14:17:27.551Z,3.38
2023-02-14T14:19:57.937Z,3.28
2023-02-14T14:22:29.341Z,4.55
2023-02-14T14:25:05.158Z,3.60
2023-02-14T14:27:36.231Z,4.18
2023-02-14T14:30:06.669Z,4.13
2023-02-14T14:32:36.598Z,5.22
2023-02-14T14:35:19.563Z,4.32
2023-02-14T14:37:50.484Z,5.65
2023-02-14T14:40:25.984Z,5.57
2023-02-14T14:42:55.311Z,5.68
2023-02-14T14:45:27.382Z,7.05
2023-02-14T14:47:58.649Z,6.20
2023-02-14T14:50:30.519Z,6.70
2023-02-14T14:53:03.237Z,6.97
2023-02-14T14:55:32.959Z,6.10
2023-02-14T14:58:03.806Z,6.82
2023-02-14T15:00:37.880Z,5.43
2023-02-14T15:03:14.670Z,6.68
2023-02-14T15:05:47.773Z,7.38
2023-02-14T15:08:31.852Z,5.97
2023-02-14T15:11:03.090Z,5.60
2023-02-14T15:13:54.913Z,4.82
2023-02-14T15:16:26.083Z,5.22
2023-02-14T15:18:57.469Z,5.55
2023-02-14T15:21:28.130Z,4.85
2023-02-14T15:23:56.573Z,5.93
2023-02-14T15:26:28.784Z,5.00
2023-02-14T15:28:59.592Z,6.78
2023-02-14T15:31:35.803Z,5.45
2023-02-14T15:34:05.101Z,7.50
2023-02-14T15:36:38.775Z,6.72
2023-02-14T15:39:09.470Z,5.40
2023-02-14T15:41:38.242Z,4.80
2023-02-14T15:44:06.492Z,6.13
2023-02-14T15:46:41.505Z,6.65
2023-02-14T15:49:11.827Z,4.68
2023-02-14T15:51:43.991Z,6.32
2023-02-14T15:54:22.066Z,5.82
2023-02-14T15:56:53.611Z,16.75
2023-02-14T15:59:26.355Z,11.52
2023-02-14T16:01:58.403Z,9.98
2023-02-14T16:04:28.753Z,7.45
2023-02-14T16:07:22.243Z,12.02
2023-02-14T16:09:51.298Z,12.68
2023-02-14T16:12:31.826Z,10.13
2023-02-14T16:15:11.771Z,5.32
2023-02-14T16:17:41.948Z,7.07
2023-02-14T16:20:27.021Z,7.95
2023-02-14T16:23:18.118Z,8.73
2023-02-14T16:25:46.969Z,8.90
2023-02-14T16:28:16.197Z,6.72
2023-02-14T16:30:46.229Z,5.78
2023-02-14T16:33:19.534Z,5.60
2023-02-14T16:35:48.643Z,6.45
2023-02-14T16:38:19.810Z,5.07
2023-02-14T16:40:50.233Z,5.63
2023-02-14T16:43:21.192Z,4.47
2023-02-14T16:45:49.515Z,5.28
2023-02-14T16:48:18.328Z,6.07
2023-02-14T16:50:47.468Z,5.35
2023-02-14T16:53:25.060Z,6.13
2023-02-14T16:55:55.332Z,6.70
2023-02-14T16:58:26.883Z,7.20
2023-02-14T17:00:58.407Z,9.32
2023-02-14T17:03:26.993Z,9.30
2023-02-14T17:05:57.515Z,13.27
2023-02-14T17:08:28.026Z,8.18
2023-02-14T17:10:58.386Z,7.80
2023-02-14T17:13:29.354Z,5.70
2023-02-14T17:15:57.907Z,5.80
2023-02-14T17:18:26.722Z,5.85
2023-02-14T17:21:18.128Z,5.18
2023-02-14T17:23:48.971Z,5.70
2023-02-14T17:26:18.352Z,9.88
2023-02-14T17:28:47.286Z,9.32
2023-02-14T17:31:18.006Z,8.63
2023-02-14T17:33:46.211Z,12.13
2023-02-14T17:36:17.817Z,11.82
2023-02-14T17:38:47.366Z,8.80
2023-02-14T17:41:18.627Z,9.80
2023-02-14T17:43:47.520Z,10.15
2023-02-14T17:46:18.579Z,10.20
2023-02-14T17:48:47.980Z,11.30
2023-02-14T17:51:20.264Z,7.28
2023-02-14T17:53:51.015Z,13.60
2023-02-14T17:56:21.107Z,15.25
2023-02-14T17:58:50.736Z,18.42
2023-02-14T18:01:21.213Z,16.13
2023-02-14T18:03:51.771Z,17.40
2023-02-14T18:06:20.670Z,19.58
2023-02-14T18:08:52.964Z,19.17
2023-02-14T18:11:22.167Z,19.95
2023-02-14T18:13:50.861Z,14.88
2023-02-14T18:16:20.350Z,14.40
2023-02-14T18:18:51.632Z,17.50
2023-02-14T18:21:22.735Z,14.65
2023-02-14T18:23:52.671Z,12.93
2023-02-14T18:26:21.193Z,11.27
2023-02-14T18:28:51.081Z,11.43
2023-02-14T18:31:19.800Z,8.73
2023-02-14T18:33:49.898Z,8.70
2023-02-14T18:36:20.177Z,9.65
2023-02-14T18:38:50.004Z,8.27
2023-02-14T18:41:20.741Z,8.68
2023-02-14T18:43:49.930Z,9.23
2023-02-14T18:46:19.933Z,7.70
2023-02-14T18:48:48.230Z,7.07
2023-02-14T18:51:18.015Z,7.70
2023-02-14T18:53:47.735Z,9.00
2023-02-14T18:56:17.302Z,10.07
2023-02-14T18:58:51.770Z,7.57
2023-02-14T19:01:22.760Z,7.35
2023-02-14T19:03:54.732Z,7.13
2023-02-14T19:06:24.031Z,6.97
2023-02-14T19:08:52.357Z,7.45
2023-02-14T19:11:23.274Z,7.68
2023-02-14T19:13:56.686Z,7.43
2023-02-14T19:16:28.381Z,6.95
2023-02-14T19:19:00.105Z,6.07
2023-02-14T19:21:31.365Z,6.72
2023-02-14T19:23:59.675Z,7.07
2023-02-14T19:26:30.181Z,7.53
2023-02-14T19:29:03.784Z,5.85
2023-02-14T19:31:36.213Z,6.72
2023-02-14T19:34:06.569Z,5.68
2023-02-14T19:36:36.313Z,6.57
2023-02-14T19:39:05.267Z,5.07
2023-02-14T19:41:35.393Z,6.55
2023-02-14T19:44:07.290Z,6.13
2023-02-14T19:46:38.138Z,6.05
2023-02-14T19:49:08.916Z,5.82
2023-02-14T19:51:37.668Z,11.40
2023-02-14T19:54:09.906Z,5.25
2023-02-14T19:56:40.517Z,5.53
2023-02-14T19:59:11.075Z,5.97
2023-02-14T20:01:41.892Z,6.63
2023-02-14T20:04:16.551Z,4.50
2023-02-14T20:06:45.662Z,5.15
2023-02-14T20:09:15.246Z,6.03
2023-02-14T20:11:49.977Z,10.65
2023-02-14T20:14:21.457Z,8.32
2023-02-14T20:16:51.914Z,7.75
2023-02-14T20:19:22.644Z,7.05
2023-02-14T20:21:52.070Z,4.97
2023-02-14T20:24:22.690Z,7.90
2023-02-14T20:26:52.126Z,11.82
2023-02-14T20:29:23.199Z,10.57
2023-02-14T20:31:57.593Z,13.35
2023-02-14T20:34:27.017Z,19.63
2023-02-14T20:36:59.193Z,13.75
2023-02-14T20:39:30.446Z,11.35
2023-02-14T20:41:58.946Z,9.95
2023-02-14T20:44:29.582Z,14.65
2023-02-14T20:46:58.263Z,14.82
2023-02-14T20:49:28.089Z,18.88
2023-02-14T20:51:59.616Z,22.52
2023-02-14T20:54:29.083Z,21.30
2023-02-14T20:56:58.472Z,20.85
2023-02-14T20:59:28.747Z,10.93
2023-02-14T21:01:58.726Z,12.88
2023-02-14T21:04:27.143Z,14.10
2023-02-14T21:06:57.714Z,11.93
2023-02-14T21:09:26.276Z,12.77
2023-02-14T21:11:57.923Z,11.88
2023-02-14T21:14:26.397Z,11.93
2023-02-14T21:17:03.175Z,9.35
2023-02-14T21:19:31.773Z,8.35
2023-02-14T21:21:59.899Z,7.93
2023-02-14T21:24:28.848Z,5.57
2023-02-14T21:26:58.017Z,6.63
2023-02-14T21:29:26.169Z,6.10
2023-02-14T21:31:58.454Z,7.13
2023-02-14T21:34:30.244Z,4.72
2023-02-14T21:36:58.398Z,5.40
2023-02-14T21:39:27.782Z,6.65
2023-02-14T21:41:59.666Z,5.53
2023-02-14T21:44:44.466Z,6.07
2023-02-14T21:47:14.178Z,6.85
2023-02-14T21:49:59.919Z,5.47
2023-02-14T21:52:30.172Z,6.35
2023-02-14T21:54:58.319Z,6.45
2023-02-14T21:57:26.555Z,5.97
2023-02-14T21:59:56.548Z,5.60
2023-02-14T22:02:26.235Z,5.88
2023-02-14T22:04:54.723Z,5.18
2023-02-14T22:07:25.205Z,5.82
2023-02-14T22:09:53.603Z,6.00
2023-02-14T22:12:25.426Z,5.05
2023-02-14T22:14:53.565Z,3.70
2023-02-14T22:17:21.773Z,5.43
2023-02-14T22:19:51.327Z,5.68
2023-02-14T22:22:19.469Z,4.43
2023-02-14T22:24:47.615Z,5.72
2023-02-14T22:27:18.542Z,5.38
2023-02-14T22:29:46.749Z,4.03
2023-02-14T22:32:17.689Z,4.72
2023-02-14T22:34:46.525Z,4.13
2023-02-14T22:37:19.498Z,4.75
2023-02-14T22:39:47.664Z,3.97
2023-02-14T22:42:18.715Z,4.60
2023-02-14T22:44:46.884Z,4.72
2023-02-14T22:47:17.675Z,4.45
2023-02-14T22:49:45.867Z,4.28
2023-02-14T22:52:15.357Z,3.92
2023-02-14T22:54:43.670Z,5.15
2023-02-14T22:57:11.895Z,5.82
2023-02-14T22:59:40.277Z,6.90
2023-02-14T23:02:09.717Z,5.05
2023-02-14T23:04:39.618Z,4.65
2023-02-14T23:07:07.786Z,4.55
2023-02-14T23:09:40.217Z,4.40
2023-02-14T23:12:28.509Z,5.03
2023-02-14T23:15:16.118Z,5.78
2023-02-14T23:18:01.670Z,4.93
2023-02-14T23:20:48.666Z,5.25
2023-02-14T23:23:17.074Z,3.92
2023-02-14T23:25:46.591Z,4.53
2023-02-14T23:28:14.769Z,5.10
2023-02-14T23:30:42.900Z,4.82
2023-02-14T23:33:11.149Z,4.82
2023-02-14T23:35:39.312Z,4.22
2023-02-14T23:38:07.489Z,4.80
2023-02-14T23:40:55.820Z,4.90
2023-02-14T23:43:25.393Z,4.47
2023-02-14T23:45:53.614Z,4.90
2023-02-14T23:48:21.809Z,5.32
2023-02-14T23:50:50.045Z,5.30
2023-02-14T23:53:18.203Z,5.30
2023-02-14T23:55:46.347Z,4.88
2023-02-14T23:58:14.521Z,4.60
